sensor_id;sensor_type;location;lat;lon;timestamp;temperature;humidity
52787;DHT22;38661;53.152;5.846;2024-02-21T00:00:50;9.00;96.20
52787;DHT22;38661;53.152;5.846;2024-02-21T00:03:15;8.90;96.30
52787;DHT22;38661;53.152;5.846;2024-02-21T00:05:41;9.00;96.30
52787;DHT22;38661;53.152;5.846;2024-02-21T00:08:07;9.00;96.30
52787;DHT22;38661;53.152;5.846;2024-02-21T00:10:32;8.90;96.30
52787;DHT22;38661;53.152;5.846;2024-02-21T00:12:58;9.00;96.30
52787;DHT22;38661;53.152;5.846;2024-02-21T00:15:27;9.00;96.60
52787;DHT22;38661;53.152;5.846;2024-02-21T00:17:53;9.00;96.40
52787;DHT22;38661;53.152;5.846;2024-02-21T00:20:19;9.00;96.60
52787;DHT22;38661;53.152;5.846;2024-02-21T00:22:45;9.00;96.60
52787;DHT22;38661;53.152;5.846;2024-02-21T00:25:11;8.90;96.60
52787;DHT22;38661;53.152;5.846;2024-02-21T00:27:38;8.90;96.60
52787;DHT22;38661;53.152;5.846;2024-02-21T00:30:05;8.90;96.60
52787;DHT22;38661;53.152;5.846;2024-02-21T00:32:30;8.90;96.60
52787;DHT22;38661;53.152;5.846;2024-02-21T00:34:57;8.90;96.60
52787;DHT22;38661;53.152;5.846;2024-02-21T00:37:23;8.90;96.60
52787;DHT22;38661;53.152;5.846;2024-02-21T00:39:48;8.80;96.60
52787;DHT22;38661;53.152;5.846;2024-02-21T00:42:14;8.80;96.90
52787;DHT22;38661;53.152;5.846;2024-02-21T00:44:40;8.80;96.90
52787;DHT22;38661;53.152;5.846;2024-02-21T00:47:05;8.80;96.80
52787;DHT22;38661;53.152;5.846;2024-02-21T00:49:31;8.90;96.80
52787;DHT22;38661;53.152;5.846;2024-02-21T00:51:57;8.90;96.70
52787;DHT22;38661;53.152;5.846;2024-02-21T00:54:22;8.80;96.70
52787;DHT22;38661;53.152;5.846;2024-02-21T00:56:48;8.90;96.80
52787;DHT22;38661;53.152;5.846;2024-02-21T00:59:14;8.80;96.90
52787;DHT22;38661;53.152;5.846;2024-02-21T01:01:39;8.80;97.20
52787;DHT22;38661;53.152;5.846;2024-02-21T01:04:09;8.80;97.20
52787;DHT22;38661;53.152;5.846;2024-02-21T01:06:34;8.80;97.20
52787;DHT22;38661;53.152;5.846;2024-02-21T01:09:00;8.70;97.30
52787;DHT22;38661;53.152;5.846;2024-02-21T01:11:26;8.70;97.30
52787;DHT22;38661;53.152;5.846;2024-02-21T01:13:51;8.70;97.50
52787;DHT22;38661;53.152;5.846;2024-02-21T01:16:17;8.80;97.40
52787;DHT22;38661;53.152;5.846;2024-02-21T01:18:43;8.70;97.60
52787;DHT22;38661;53.152;5.846;2024-02-21T01:21:08;8.80;97.40
52787;DHT22;38661;53.152;5.846;2024-02-21T01:23:35;8.80;97.60
52787;DHT22;38661;53.152;5.846;2024-02-21T01:26:02;8.70;97.70
52787;DHT22;38661;53.152;5.846;2024-02-21T01:28:28;8.80;97.70
52787;DHT22;38661;53.152;5.846;2024-02-21T01:30:54;8.70;97.70
52787;DHT22;38661;53.152;5.846;2024-02-21T01:33:19;8.70;97.90
52787;DHT22;38661;53.152;5.846;2024-02-21T01:35:45;8.80;98.00
52787;DHT22;38661;53.152;5.846;2024-02-21T01:38:12;8.70;98.00
52787;DHT22;38661;53.152;5.846;2024-02-21T01:40:38;8.70;97.90
52787;DHT22;38661;53.152;5.846;2024-02-21T01:43:14;8.70;98.20
52787;DHT22;38661;53.152;5.846;2024-02-21T01:45:40;8.70;98.10
52787;DHT22;38661;53.152;5.846;2024-02-21T01:48:06;8.70;98.20
52787;DHT22;38661;53.152;5.846;2024-02-21T01:50:32;8.70;98.10
52787;DHT22;38661;53.152;5.846;2024-02-21T01:52:58;8.70;98.10
52787;DHT22;38661;53.152;5.846;2024-02-21T01:55:24;8.70;98.10
52787;DHT22;38661;53.152;5.846;2024-02-21T01:57:50;8.80;98.00
52787;DHT22;38661;53.152;5.846;2024-02-21T02:00:16;8.70;98.20
52787;DHT22;38661;53.152;5.846;2024-02-21T02:02:42;8.70;98.10
52787;DHT22;38661;53.152;5.846;2024-02-21T02:05:09;8.80;98.00
52787;DHT22;38661;53.152;5.846;2024-02-21T02:07:35;8.80;98.10
52787;DHT22;38661;53.152;5.846;2024-02-21T02:10:01;8.70;98.10
52787;DHT22;38661;53.152;5.846;2024-02-21T02:12:27;8.70;98.10
52787;DHT22;38661;53.152;5.846;2024-02-21T02:15:00;8.70;98.10
52787;DHT22;38661;53.152;5.846;2024-02-21T02:17:26;8.70;98.10
52787;DHT22;38661;53.152;5.846;2024-02-21T02:19:51;8.70;98.20
52787;DHT22;38661;53.152;5.846;2024-02-21T02:22:22;8.70;98.10
52787;DHT22;38661;53.152;5.846;2024-02-21T02:24:49;8.70;98.10
52787;DHT22;38661;53.152;5.846;2024-02-21T02:27:14;8.70;98.10
52787;DHT22;38661;53.152;5.846;2024-02-21T02:29:40;8.60;98.20
52787;DHT22;38661;53.152;5.846;2024-02-21T02:32:06;8.60;98.20
52787;DHT22;38661;53.152;5.846;2024-02-21T02:34:32;8.70;98.20
52787;DHT22;38661;53.152;5.846;2024-02-21T02:36:57;8.70;98.10
52787;DHT22;38661;53.152;5.846;2024-02-21T02:39:23;8.70;98.20
52787;DHT22;38661;53.152;5.846;2024-02-21T02:41:49;8.70;98.10
52787;DHT22;38661;53.152;5.846;2024-02-21T02:44:14;8.60;98.00
52787;DHT22;38661;53.152;5.846;2024-02-21T02:46:41;8.60;98.10
52787;DHT22;38661;53.152;5.846;2024-02-21T02:49:06;8.70;98.10
52787;DHT22;38661;53.152;5.846;2024-02-21T02:51:32;8.70;98.10
52787;DHT22;38661;53.152;5.846;2024-02-21T02:53:58;8.70;98.00
52787;DHT22;38661;53.152;5.846;2024-02-21T02:56:23;8.70;98.00
52787;DHT22;38661;53.152;5.846;2024-02-21T02:58:49;8.70;98.00
52787;DHT22;38661;53.152;5.846;2024-02-21T03:01:15;8.70;98.00
52787;DHT22;38661;53.152;5.846;2024-02-21T03:03:40;8.70;98.00
52787;DHT22;38661;53.152;5.846;2024-02-21T03:06:06;8.70;98.00
52787;DHT22;38661;53.152;5.846;2024-02-21T03:08:32;8.70;98.00
52787;DHT22;38661;53.152;5.846;2024-02-21T03:11:00;8.70;97.90
52787;DHT22;38661;53.152;5.846;2024-02-21T03:13:26;8.70;98.10
52787;DHT22;38661;53.152;5.846;2024-02-21T03:15:52;8.60;98.00
52787;DHT22;38661;53.152;5.846;2024-02-21T03:18:17;8.60;98.00
52787;DHT22;38661;53.152;5.846;2024-02-21T03:20:43;8.60;98.00
52787;DHT22;38661;53.152;5.846;2024-02-21T03:23:09;8.70;98.10
52787;DHT22;38661;53.152;5.846;2024-02-21T03:25:34;8.70;98.00
52787;DHT22;38661;53.152;5.846;2024-02-21T03:28:00;8.60;98.10
52787;DHT22;38661;53.152;5.846;2024-02-21T03:30:27;8.70;98.10
52787;DHT22;38661;53.152;5.846;2024-02-21T03:32:52;8.70;98.10
52787;DHT22;38661;53.152;5.846;2024-02-21T03:35:18;8.70;98.00
52787;DHT22;38661;53.152;5.846;2024-02-21T03:37:45;8.80;98.00
52787;DHT22;38661;53.152;5.846;2024-02-21T03:40:11;8.70;97.90
52787;DHT22;38661;53.152;5.846;2024-02-21T03:42:38;8.70;97.90
52787;DHT22;38661;53.152;5.846;2024-02-21T03:45:04;8.80;97.90
52787;DHT22;38661;53.152;5.846;2024-02-21T03:47:30;8.80;97.80
52787;DHT22;38661;53.152;5.846;2024-02-21T03:49:55;8.70;97.70
52787;DHT22;38661;53.152;5.846;2024-02-21T03:52:22;8.70;97.80
52787;DHT22;38661;53.152;5.846;2024-02-21T03:54:47;8.70;97.80
52787;DHT22;38661;53.152;5.846;2024-02-21T03:57:13;8.70;97.90
52787;DHT22;38661;53.152;5.846;2024-02-21T03:59:39;8.70;97.90
52787;DHT22;38661;53.152;5.846;2024-02-21T04:02:06;8.80;97.80
52787;DHT22;38661;53.152;5.846;2024-02-21T04:04:34;8.70;97.80
52787;DHT22;38661;53.152;5.846;2024-02-21T04:07:00;8.70;97.80
52787;DHT22;38661;53.152;5.846;2024-02-21T04:09:26;8.70;97.80
52787;DHT22;38661;53.152;5.846;2024-02-21T04:11:52;8.70;97.80
52787;DHT22;38661;53.152;5.846;2024-02-21T04:14:17;8.70;97.90
52787;DHT22;38661;53.152;5.846;2024-02-21T04:16:43;8.60;97.90
52787;DHT22;38661;53.152;5.846;2024-02-21T04:19:09;8.70;98.00
52787;DHT22;38661;53.152;5.846;2024-02-21T04:21:35;8.70;97.90
52787;DHT22;38661;53.152;5.846;2024-02-21T04:24:00;8.70;97.80
52787;DHT22;38661;53.152;5.846;2024-02-21T04:26:27;8.70;97.80
52787;DHT22;38661;53.152;5.846;2024-02-21T04:28:53;8.60;97.80
52787;DHT22;38661;53.152;5.846;2024-02-21T04:31:18;8.60;97.80
52787;DHT22;38661;53.152;5.846;2024-02-21T04:33:44;8.60;97.80
52787;DHT22;38661;53.152;5.846;2024-02-21T04:36:10;8.60;97.90
52787;DHT22;38661;53.152;5.846;2024-02-21T04:38:35;8.60;98.00
52787;DHT22;38661;53.152;5.846;2024-02-21T04:41:01;8.60;98.00
52787;DHT22;38661;53.152;5.846;2024-02-21T04:43:27;8.60;98.00
52787;DHT22;38661;53.152;5.846;2024-02-21T04:45:52;8.50;98.00
52787;DHT22;38661;53.152;5.846;2024-02-21T04:48:19;8.50;98.10
52787;DHT22;38661;53.152;5.846;2024-02-21T04:50:45;8.60;98.10
52787;DHT22;38661;53.152;5.846;2024-02-21T04:53:10;8.50;98.00
52787;DHT22;38661;53.152;5.846;2024-02-21T04:55:36;8.50;98.10
52787;DHT22;38661;53.152;5.846;2024-02-21T04:58:02;8.60;98.10
52787;DHT22;38661;53.152;5.846;2024-02-21T05:00:28;8.60;98.10
52787;DHT22;38661;53.152;5.846;2024-02-21T05:02:53;8.60;98.00
52787;DHT22;38661;53.152;5.846;2024-02-21T05:05:19;8.60;98.00
52787;DHT22;38661;53.152;5.846;2024-02-21T05:07:45;8.60;98.10
52787;DHT22;38661;53.152;5.846;2024-02-21T05:10:10;8.60;98.00
52787;DHT22;38661;53.152;5.846;2024-02-21T05:12:36;8.60;98.10
52787;DHT22;38661;53.152;5.846;2024-02-21T05:15:03;8.60;98.10
52787;DHT22;38661;53.152;5.846;2024-02-21T05:17:28;8.60;98.00
52787;DHT22;38661;53.152;5.846;2024-02-21T05:19:54;8.60;98.10
52787;DHT22;38661;53.152;5.846;2024-02-21T05:22:20;8.60;98.00
52787;DHT22;38661;53.152;5.846;2024-02-21T05:24:45;8.60;98.00
52787;DHT22;38661;53.152;5.846;2024-02-21T05:27:11;8.60;98.00
52787;DHT22;38661;53.152;5.846;2024-02-21T05:29:37;8.60;98.00
52787;DHT22;38661;53.152;5.846;2024-02-21T05:32:03;8.60;98.10
52787;DHT22;38661;53.152;5.846;2024-02-21T05:34:29;8.60;98.00
52787;DHT22;38661;53.152;5.846;2024-02-21T05:36:54;8.60;98.10
52787;DHT22;38661;53.152;5.846;2024-02-21T05:39:20;8.60;98.10
52787;DHT22;38661;53.152;5.846;2024-02-21T05:41:48;8.60;98.00
52787;DHT22;38661;53.152;5.846;2024-02-21T05:44:14;8.60;98.10
52787;DHT22;38661;53.152;5.846;2024-02-21T05:46:39;8.50;98.10
52787;DHT22;38661;53.152;5.846;2024-02-21T05:49:05;8.50;98.10
52787;DHT22;38661;53.152;5.846;2024-02-21T05:51:33;8.50;98.10
52787;DHT22;38661;53.152;5.846;2024-02-21T05:53:59;8.50;98.20
52787;DHT22;38661;53.152;5.846;2024-02-21T05:56:24;8.50;98.20
52787;DHT22;38661;53.152;5.846;2024-02-21T05:58:50;8.50;98.20
52787;DHT22;38661;53.152;5.846;2024-02-21T06:01:15;8.50;98.20
52787;DHT22;38661;53.152;5.846;2024-02-21T06:03:41;8.50;98.20
52787;DHT22;38661;53.152;5.846;2024-02-21T06:06:07;8.60;98.10
52787;DHT22;38661;53.152;5.846;2024-02-21T06:08:32;8.50;98.00
52787;DHT22;38661;53.152;5.846;2024-02-21T06:10:58;8.50;98.20
52787;DHT22;38661;53.152;5.846;2024-02-21T06:13:24;8.50;98.20
52787;DHT22;38661;53.152;5.846;2024-02-21T06:15:50;8.50;98.20
52787;DHT22;38661;53.152;5.846;2024-02-21T06:18:20;8.50;98.20
52787;DHT22;38661;53.152;5.846;2024-02-21T06:20:46;8.50;98.20
52787;DHT22;38661;53.152;5.846;2024-02-21T06:23:16;8.50;98.20
52787;DHT22;38661;53.152;5.846;2024-02-21T06:25:45;8.50;98.20
52787;DHT22;38661;53.152;5.846;2024-02-21T06:28:13;8.50;98.20
52787;DHT22;38661;53.152;5.846;2024-02-21T06:30:40;8.50;98.20
52787;DHT22;38661;53.152;5.846;2024-02-21T06:33:05;8.60;98.10
52787;DHT22;38661;53.152;5.846;2024-02-21T06:35:33;8.50;98.10
52787;DHT22;38661;53.152;5.846;2024-02-21T06:37:59;8.50;98.20
52787;DHT22;38661;53.152;5.846;2024-02-21T06:40:25;8.50;98.20
52787;DHT22;38661;53.152;5.846;2024-02-21T06:42:50;8.50;98.20
52787;DHT22;38661;53.152;5.846;2024-02-21T06:45:17;8.60;98.20
52787;DHT22;38661;53.152;5.846;2024-02-21T06:47:43;8.60;98.20
52787;DHT22;38661;53.152;5.846;2024-02-21T06:50:09;8.60;98.20
52787;DHT22;38661;53.152;5.846;2024-02-21T06:52:36;8.60;98.20
52787;DHT22;38661;53.152;5.846;2024-02-21T06:55:02;8.60;98.30
52787;DHT22;38661;53.152;5.846;2024-02-21T06:57:29;8.60;98.30
52787;DHT22;38661;53.152;5.846;2024-02-21T06:59:54;8.50;98.40
52787;DHT22;38661;53.152;5.846;2024-02-21T07:02:20;8.60;98.30
52787;DHT22;38661;53.152;5.846;2024-02-21T07:04:46;8.60;98.50
52787;DHT22;38661;53.152;5.846;2024-02-21T07:07:12;8.60;98.60
52787;DHT22;38661;53.152;5.846;2024-02-21T07:09:38;8.60;98.40
52787;DHT22;38661;53.152;5.846;2024-02-21T07:12:04;8.60;98.50
52787;DHT22;38661;53.152;5.846;2024-02-21T07:14:32;8.60;98.50
52787;DHT22;38661;53.152;5.846;2024-02-21T07:16:57;8.60;98.50
52787;DHT22;38661;53.152;5.846;2024-02-21T07:19:23;8.60;98.60
52787;DHT22;38661;53.152;5.846;2024-02-21T07:21:49;8.60;98.60
52787;DHT22;38661;53.152;5.846;2024-02-21T07:24:15;8.60;98.60
52787;DHT22;38661;53.152;5.846;2024-02-21T07:26:44;8.70;98.50
52787;DHT22;38661;53.152;5.846;2024-02-21T07:29:09;8.60;98.60
52787;DHT22;38661;53.152;5.846;2024-02-21T07:31:42;8.70;98.60
52787;DHT22;38661;53.152;5.846;2024-02-21T07:34:08;8.70;98.50
52787;DHT22;38661;53.152;5.846;2024-02-21T07:36:34;8.70;98.60
52787;DHT22;38661;53.152;5.846;2024-02-21T07:39:00;8.70;98.80
52787;DHT22;38661;53.152;5.846;2024-02-21T07:41:26;8.70;98.70
52787;DHT22;38661;53.152;5.846;2024-02-21T07:43:52;8.70;98.60
52787;DHT22;38661;53.152;5.846;2024-02-21T07:46:18;8.70;98.70
52787;DHT22;38661;53.152;5.846;2024-02-21T07:48:45;8.70;98.60
52787;DHT22;38661;53.152;5.846;2024-02-21T07:51:11;8.70;98.90
52787;DHT22;38661;53.152;5.846;2024-02-21T07:53:38;8.70;98.70
52787;DHT22;38661;53.152;5.846;2024-02-21T07:56:04;8.70;98.80
52787;DHT22;38661;53.152;5.846;2024-02-21T07:58:30;8.60;98.90
52787;DHT22;38661;53.152;5.846;2024-02-21T08:00:55;8.60;98.90
52787;DHT22;38661;53.152;5.846;2024-02-21T08:03:21;8.60;99.00
52787;DHT22;38661;53.152;5.846;2024-02-21T08:05:48;8.60;98.90
52787;DHT22;38661;53.152;5.846;2024-02-21T08:08:14;8.60;98.90
52787;DHT22;38661;53.152;5.846;2024-02-21T08:10:45;8.70;98.80
52787;DHT22;38661;53.152;5.846;2024-02-21T08:13:11;8.60;98.70
52787;DHT22;38661;53.152;5.846;2024-02-21T08:15:37;8.60;98.80
52787;DHT22;38661;53.152;5.846;2024-02-21T08:18:05;8.70;98.60
52787;DHT22;38661;53.152;5.846;2024-02-21T08:20:31;8.60;98.60
52787;DHT22;38661;53.152;5.846;2024-02-21T08:22:56;8.70;98.60
52787;DHT22;38661;53.152;5.846;2024-02-21T08:25:22;8.70;98.60
52787;DHT22;38661;53.152;5.846;2024-02-21T08:27:48;8.60;98.50
52787;DHT22;38661;53.152;5.846;2024-02-21T08:30:14;8.70;98.60
52787;DHT22;38661;53.152;5.846;2024-02-21T08:32:39;8.70;98.50
52787;DHT22;38661;53.152;5.846;2024-02-21T08:35:05;8.70;98.60
52787;DHT22;38661;53.152;5.846;2024-02-21T08:37:31;8.70;98.50
52787;DHT22;38661;53.152;5.846;2024-02-21T08:39:57;8.70;98.60
52787;DHT22;38661;53.152;5.846;2024-02-21T08:42:23;8.70;98.50
52787;DHT22;38661;53.152;5.846;2024-02-21T08:44:49;8.70;98.60
52787;DHT22;38661;53.152;5.846;2024-02-21T08:47:14;8.70;98.50
52787;DHT22;38661;53.152;5.846;2024-02-21T08:49:40;8.70;98.40
52787;DHT22;38661;53.152;5.846;2024-02-21T08:52:06;8.70;98.40
52787;DHT22;38661;53.152;5.846;2024-02-21T08:54:32;8.60;98.20
52787;DHT22;38661;53.152;5.846;2024-02-21T08:56:58;8.70;98.10
52787;DHT22;38661;53.152;5.846;2024-02-21T08:59:24;8.70;98.20
52787;DHT22;38661;53.152;5.846;2024-02-21T09:01:51;8.70;98.10
52787;DHT22;38661;53.152;5.846;2024-02-21T09:04:18;8.70;98.10
52787;DHT22;38661;53.152;5.846;2024-02-21T09:06:45;8.70;98.10
52787;DHT22;38661;53.152;5.846;2024-02-21T09:09:12;8.70;98.00
52787;DHT22;38661;53.152;5.846;2024-02-21T09:11:38;8.70;97.90
52787;DHT22;38661;53.152;5.846;2024-02-21T09:14:04;8.80;98.00
52787;DHT22;38661;53.152;5.846;2024-02-21T09:16:33;8.80;97.70
52787;DHT22;38661;53.152;5.846;2024-02-21T09:18:59;8.80;97.70
52787;DHT22;38661;53.152;5.846;2024-02-21T09:21:26;8.80;97.70
52787;DHT22;38661;53.152;5.846;2024-02-21T09:23:51;8.80;97.80
52787;DHT22;38661;53.152;5.846;2024-02-21T09:26:17;8.90;97.60
52787;DHT22;38661;53.152;5.846;2024-02-21T09:28:43;8.90;97.50
52787;DHT22;38661;53.152;5.846;2024-02-21T09:31:12;8.90;97.20
52787;DHT22;38661;53.152;5.846;2024-02-21T09:33:37;8.90;97.10
52787;DHT22;38661;53.152;5.846;2024-02-21T09:36:03;8.90;97.50
52787;DHT22;38661;53.152;5.846;2024-02-21T09:38:31;8.90;97.30
52787;DHT22;38661;53.152;5.846;2024-02-21T09:41:03;8.90;97.10
52787;DHT22;38661;53.152;5.846;2024-02-21T09:43:30;8.90;97.00
52787;DHT22;38661;53.152;5.846;2024-02-21T09:45:58;9.00;96.90
52787;DHT22;38661;53.152;5.846;2024-02-21T09:50:57;9.00;96.70
52787;DHT22;38661;53.152;5.846;2024-02-21T09:53:24;9.00;96.50
52787;DHT22;38661;53.152;5.846;2024-02-21T09:55:50;9.10;96.60
52787;DHT22;38661;53.152;5.846;2024-02-21T09:58:16;9.20;96.50
52787;DHT22;38661;53.152;5.846;2024-02-21T10:00:42;9.10;96.60
52787;DHT22;38661;53.152;5.846;2024-02-21T10:03:08;9.10;96.60
52787;DHT22;38661;53.152;5.846;2024-02-21T10:05:37;9.10;96.30
52787;DHT22;38661;53.152;5.846;2024-02-21T10:08:04;9.20;96.40
52787;DHT22;38661;53.152;5.846;2024-02-21T10:10:40;9.10;96.10
52787;DHT22;38661;53.152;5.846;2024-02-21T10:13:07;9.10;96.10
52787;DHT22;38661;53.152;5.846;2024-02-21T10:15:33;9.20;96.30
52787;DHT22;38661;53.152;5.846;2024-02-21T10:18:02;9.10;95.70
52787;DHT22;38661;53.152;5.846;2024-02-21T10:20:29;9.20;95.70
52787;DHT22;38661;53.152;5.846;2024-02-21T10:23:01;9.20;95.50
52787;DHT22;38661;53.152;5.846;2024-02-21T10:25:28;9.30;95.50
52787;DHT22;38661;53.152;5.846;2024-02-21T10:27:55;9.30;95.20
52787;DHT22;38661;53.152;5.846;2024-02-21T10:30:21;9.30;95.30
52787;DHT22;38661;53.152;5.846;2024-02-21T10:32:53;9.30;95.00
52787;DHT22;38661;53.152;5.846;2024-02-21T10:35:26;9.40;94.80
52787;DHT22;38661;53.152;5.846;2024-02-21T10:37:54;9.40;94.70
52787;DHT22;38661;53.152;5.846;2024-02-21T10:40:25;9.50;94.80
52787;DHT22;38661;53.152;5.846;2024-02-21T10:42:59;9.50;94.90
52787;DHT22;38661;53.152;5.846;2024-02-21T10:45:34;9.50;94.40
52787;DHT22;38661;53.152;5.846;2024-02-21T10:50:32;9.50;94.60
52787;DHT22;38661;53.152;5.846;2024-02-21T10:53:22;9.50;94.50
52787;DHT22;38661;53.152;5.846;2024-02-21T10:55:58;9.40;94.50
52787;DHT22;38661;53.152;5.846;2024-02-21T10:58:25;9.40;94.60
52787;DHT22;38661;53.152;5.846;2024-02-21T11:00:54;9.40;94.50
52787;DHT22;38661;53.152;5.846;2024-02-21T11:03:20;9.40;94.60
52787;DHT22;38661;53.152;5.846;2024-02-21T11:05:46;9.30;94.50
52787;DHT22;38661;53.152;5.846;2024-02-21T11:08:12;9.30;94.40
52787;DHT22;38661;53.152;5.846;2024-02-21T11:10:38;9.30;94.40
52787;DHT22;38661;53.152;5.846;2024-02-21T11:13:09;9.30;94.60
52787;DHT22;38661;53.152;5.846;2024-02-21T11:15:35;9.30;94.40
52787;DHT22;38661;53.152;5.846;2024-02-21T11:18:01;9.30;93.90
52787;DHT22;38661;53.152;5.846;2024-02-21T11:20:34;9.30;94.00
52787;DHT22;38661;53.152;5.846;2024-02-21T11:23:00;9.30;93.70
52787;DHT22;38661;53.152;5.846;2024-02-21T11:25:29;9.40;94.00
52787;DHT22;38661;53.152;5.846;2024-02-21T11:28:04;9.30;93.40
52787;DHT22;38661;53.152;5.846;2024-02-21T11:30:31;9.40;93.40
52787;DHT22;38661;53.152;5.846;2024-02-21T11:33:06;9.40;93.30
52787;DHT22;38661;53.152;5.846;2024-02-21T11:35:34;9.50;93.50
52787;DHT22;38661;53.152;5.846;2024-02-21T11:38:12;9.50;93.50
52787;DHT22;38661;53.152;5.846;2024-02-21T11:40:45;9.50;93.60
52787;DHT22;38661;53.152;5.846;2024-02-21T11:43:11;9.50;93.80
52787;DHT22;38661;53.152;5.846;2024-02-21T11:45:37;9.40;93.50
52787;DHT22;38661;53.152;5.846;2024-02-21T11:48:05;9.40;93.80
52787;DHT22;38661;53.152;5.846;2024-02-21T11:50:31;9.40;93.70
52787;DHT22;38661;53.152;5.846;2024-02-21T11:52:57;9.40;93.90
52787;DHT22;38661;53.152;5.846;2024-02-21T11:55:23;9.40;93.80
52787;DHT22;38661;53.152;5.846;2024-02-21T11:57:49;9.50;94.00
52787;DHT22;38661;53.152;5.846;2024-02-21T12:00:15;9.40;93.90
52787;DHT22;38661;53.152;5.846;2024-02-21T12:02:45;9.40;93.70
52787;DHT22;38661;53.152;5.846;2024-02-21T12:05:11;9.40;93.50
52787;DHT22;38661;53.152;5.846;2024-02-21T12:07:37;9.40;93.30
52787;DHT22;38661;53.152;5.846;2024-02-21T12:10:10;9.50;93.60
52787;DHT22;38661;53.152;5.846;2024-02-21T12:12:37;9.40;93.60
52787;DHT22;38661;53.152;5.846;2024-02-21T12:15:07;9.50;93.20
52787;DHT22;38661;53.152;5.846;2024-02-21T12:17:36;9.50;93.10
52787;DHT22;38661;53.152;5.846;2024-02-21T12:20:03;9.40;92.50
52787;DHT22;38661;53.152;5.846;2024-02-21T12:22:31;9.50;93.10
52787;DHT22;38661;53.152;5.846;2024-02-21T12:24:58;9.50;93.20
52787;DHT22;38661;53.152;5.846;2024-02-21T12:27:24;9.50;92.30
52787;DHT22;38661;53.152;5.846;2024-02-21T12:29:51;9.50;92.20
52787;DHT22;38661;53.152;5.846;2024-02-21T12:32:17;9.50;92.50
52787;DHT22;38661;53.152;5.846;2024-02-21T12:34:43;9.50;92.30
52787;DHT22;38661;53.152;5.846;2024-02-21T12:37:10;9.60;92.20
52787;DHT22;38661;53.152;5.846;2024-02-21T12:39:37;9.50;91.90
52787;DHT22;38661;53.152;5.846;2024-02-21T12:42:04;9.50;91.40
52787;DHT22;38661;53.152;5.846;2024-02-21T12:44:29;9.50;91.60
52787;DHT22;38661;53.152;5.846;2024-02-21T12:46:55;9.50;91.30
52787;DHT22;38661;53.152;5.846;2024-02-21T12:49:21;9.60;91.70
52787;DHT22;38661;53.152;5.846;2024-02-21T12:51:47;9.50;91.20
52787;DHT22;38661;53.152;5.846;2024-02-21T12:54:12;9.50;91.20
52787;DHT22;38661;53.152;5.846;2024-02-21T12:56:38;9.60;91.40
52787;DHT22;38661;53.152;5.846;2024-02-21T12:59:05;9.60;90.80
52787;DHT22;38661;53.152;5.846;2024-02-21T13:01:35;9.60;91.40
52787;DHT22;38661;53.152;5.846;2024-02-21T13:04:01;9.60;91.70
52787;DHT22;38661;53.152;5.846;2024-02-21T13:06:27;9.60;91.30
52787;DHT22;38661;53.152;5.846;2024-02-21T13:08:54;9.60;91.30
52787;DHT22;38661;53.152;5.846;2024-02-21T13:11:20;9.70;91.70
52787;DHT22;38661;53.152;5.846;2024-02-21T13:13:45;9.60;91.20
52787;DHT22;38661;53.152;5.846;2024-02-21T13:16:11;9.70;91.60
52787;DHT22;38661;53.152;5.846;2024-02-21T13:18:37;9.60;91.00
52787;DHT22;38661;53.152;5.846;2024-02-21T13:21:08;9.60;91.20
52787;DHT22;38661;53.152;5.846;2024-02-21T13:23:34;9.60;90.80
52787;DHT22;38661;53.152;5.846;2024-02-21T13:25:59;9.60;90.90
52787;DHT22;38661;53.152;5.846;2024-02-21T13:28:25;9.60;90.90
52787;DHT22;38661;53.152;5.846;2024-02-21T13:30:51;9.60;91.10
52787;DHT22;38661;53.152;5.846;2024-02-21T13:33:16;9.70;91.10
52787;DHT22;38661;53.152;5.846;2024-02-21T13:35:42;9.60;90.30
52787;DHT22;38661;53.152;5.846;2024-02-21T13:38:08;9.70;90.80
52787;DHT22;38661;53.152;5.846;2024-02-21T13:40:35;9.60;90.80
52787;DHT22;38661;53.152;5.846;2024-02-21T13:43:01;9.60;90.70
52787;DHT22;38661;53.152;5.846;2024-02-21T13:45:26;9.60;90.50
52787;DHT22;38661;53.152;5.846;2024-02-21T13:47:52;9.60;90.80
52787;DHT22;38661;53.152;5.846;2024-02-21T13:50:20;9.60;91.00
52787;DHT22;38661;53.152;5.846;2024-02-21T13:52:45;9.60;90.70
52787;DHT22;38661;53.152;5.846;2024-02-21T13:55:12;9.60;90.60
52787;DHT22;38661;53.152;5.846;2024-02-21T13:57:38;9.60;90.90
52787;DHT22;38661;53.152;5.846;2024-02-21T14:00:04;9.50;90.90
52787;DHT22;38661;53.152;5.846;2024-02-21T14:02:30;9.60;90.80
52787;DHT22;38661;53.152;5.846;2024-02-21T14:04:56;9.50;91.00
52787;DHT22;38661;53.152;5.846;2024-02-21T14:07:22;9.60;91.00
52787;DHT22;38661;53.152;5.846;2024-02-21T14:09:48;9.50;91.10
52787;DHT22;38661;53.152;5.846;2024-02-21T14:12:14;9.50;91.20
52787;DHT22;38661;53.152;5.846;2024-02-21T14:14:43;9.50;91.20
52787;DHT22;38661;53.152;5.846;2024-02-21T14:17:09;9.50;90.90
52787;DHT22;38661;53.152;5.846;2024-02-21T14:19:35;9.50;91.00
52787;DHT22;38661;53.152;5.846;2024-02-21T14:22:01;9.50;90.90
52787;DHT22;38661;53.152;5.846;2024-02-21T14:24:27;9.40;91.10
52787;DHT22;38661;53.152;5.846;2024-02-21T14:26:54;9.40;91.20
52787;DHT22;38661;53.152;5.846;2024-02-21T14:29:20;9.40;91.10
52787;DHT22;38661;53.152;5.846;2024-02-21T14:31:47;9.40;91.10
52787;DHT22;38661;53.152;5.846;2024-02-21T14:34:12;9.40;91.30
52787;DHT22;38661;53.152;5.846;2024-02-21T14:36:38;9.30;91.00
52787;DHT22;38661;53.152;5.846;2024-02-21T14:39:06;9.40;91.00
52787;DHT22;38661;53.152;5.846;2024-02-21T14:41:32;9.40;91.10
52787;DHT22;38661;53.152;5.846;2024-02-21T14:43:57;9.40;91.20
52787;DHT22;38661;53.152;5.846;2024-02-21T14:46:25;9.40;91.20
52787;DHT22;38661;53.152;5.846;2024-02-21T14:48:54;9.30;91.00
52787;DHT22;38661;53.152;5.846;2024-02-21T14:51:20;9.30;91.00
52787;DHT22;38661;53.152;5.846;2024-02-21T14:53:46;9.40;91.10
52787;DHT22;38661;53.152;5.846;2024-02-21T14:56:15;9.40;91.20
52787;DHT22;38661;53.152;5.846;2024-02-21T14:58:43;9.40;91.20
52787;DHT22;38661;53.152;5.846;2024-02-21T15:01:09;9.30;91.10
52787;DHT22;38661;53.152;5.846;2024-02-21T15:03:35;9.40;91.10
52787;DHT22;38661;53.152;5.846;2024-02-21T15:06:01;9.40;90.80
52787;DHT22;38661;53.152;5.846;2024-02-21T15:08:27;9.40;90.70
52787;DHT22;38661;53.152;5.846;2024-02-21T15:10:54;9.40;90.90
52787;DHT22;38661;53.152;5.846;2024-02-21T15:13:20;9.40;91.00
52787;DHT22;38661;53.152;5.846;2024-02-21T15:15:47;9.50;91.10
52787;DHT22;38661;53.152;5.846;2024-02-21T15:18:17;9.40;91.30
52787;DHT22;38661;53.152;5.846;2024-02-21T15:20:43;9.40;91.50
52787;DHT22;38661;53.152;5.846;2024-02-21T15:23:09;9.40;91.70
52787;DHT22;38661;53.152;5.846;2024-02-21T15:25:34;9.30;91.80
52787;DHT22;38661;53.152;5.846;2024-02-21T15:28:00;9.30;92.10
52787;DHT22;38661;53.152;5.846;2024-02-21T15:30:28;9.30;92.20
52787;DHT22;38661;53.152;5.846;2024-02-21T15:32:57;9.30;92.40
52787;DHT22;38661;53.152;5.846;2024-02-21T15:35:30;9.30;92.70
52787;DHT22;38661;53.152;5.846;2024-02-21T15:37:57;9.30;92.60
52787;DHT22;38661;53.152;5.846;2024-02-21T15:40:23;9.20;92.80
52787;DHT22;38661;53.152;5.846;2024-02-21T15:42:49;9.20;93.20
52787;DHT22;38661;53.152;5.846;2024-02-21T15:45:14;9.10;93.50